createdAt,value
2022-12-18T00:11:22.941Z,-6.3
2022-12-18T00:25:56.526Z,-6.3
2022-12-18T00:40:28.857Z,-5.9
2022-12-18T00:55:07.114Z,-6.1
2022-12-18T01:09:36.490Z,-6.2
2022-12-18T01:24:08.036Z,-6.2
2022-12-18T01:38:40.521Z,-6
2022-12-18T01:53:13.733Z,-5.9
2022-12-18T02:07:47.380Z,-5.8
2022-12-18T02:22:22.506Z,-6.1
2022-12-18T02:36:54.661Z,-6.1
2022-12-18T02:51:29.120Z,-5.9
2022-12-18T03:06:00.551Z,-6.1
2022-12-18T03:20:35.077Z,-5.6
2022-12-18T03:35:06.784Z,-5.7
2022-12-18T03:49:40.459Z,-5.6
2022-12-18T04:04:10.724Z,-5.6
2022-12-18T04:18:49.370Z,-5.9
2022-12-18T04:33:19.283Z,-5.5
2022-12-18T04:47:53.237Z,-5.6
2022-12-18T05:02:32.020Z,-5.6
2022-12-18T05:17:02.075Z,-5.6
2022-12-18T05:31:40.531Z,-5.4
2022-12-18T05:46:09.273Z,-5.4
2022-12-18T06:00:41.435Z,-5.4
2022-12-18T06:15:17.246Z,-4.9
2022-12-18T06:29:48.726Z,-4.8
2022-12-18T06:44:21.765Z,-4.9
2022-12-18T06:58:54.580Z,-5
2022-12-18T07:13:30.458Z,-5.3
2022-12-18T07:28:00.386Z,-5.2
2022-12-18T07:42:36.872Z,-5.2
2022-12-18T07:57:54.284Z,-4.7
2022-12-18T08:12:09.743Z,-4.7
2022-12-18T08:27:30.566Z,-4.8
2022-12-18T08:41:45.706Z,-4.8
2022-12-18T08:56:24.462Z,-4.6
2022-12-18T09:10:57.696Z,-4.1
2022-12-18T09:25:35.156Z,-4.2
2022-12-18T09:40:17.373Z,-4.2
2022-12-18T09:54:43.595Z,-4.4
2022-12-18T10:09:16.543Z,-4.4
2022-12-18T10:23:50.867Z,-4.2
2022-12-18T10:38:25.288Z,-4.2
2022-12-18T10:52:59.073Z,-4.4
2022-12-18T11:07:38.339Z,-4.2
2022-12-18T11:22:09.569Z,-4
2022-12-18T11:36:43.894Z,-4.1
2022-12-18T11:51:19.447Z,-4.3
2022-12-18T12:05:50.246Z,-4.4
2022-12-18T12:20:24.806Z,-4.2
2022-12-18T12:35:10.248Z,-4.2
2022-12-18T13:13:49.165Z,-4.2
2022-12-18T13:27:39.612Z,-4.4
2022-12-18T13:42:15.188Z,-4
2022-12-18T13:56:48.964Z,-4.4
2022-12-18T14:11:23.471Z,-4.5
2022-12-18T14:25:55.290Z,-4.5
2022-12-18T14:40:28.315Z,-4.2
2022-12-18T14:55:00.953Z,-4.5
2022-12-18T15:09:33.833Z,-4.7
2022-12-18T15:24:05.956Z,-4.8
2022-12-18T15:38:41.832Z,-4.8
2022-12-18T15:53:12.793Z,-5.2
2022-12-18T16:07:46.545Z,-5.3
2022-12-18T16:22:22.204Z,-4.8
2022-12-18T16:36:54.422Z,-4.7
2022-12-18T16:51:26.954Z,-4.6
2022-12-18T17:06:00.553Z,-4.3
2022-12-18T17:20:33.219Z,-4.3
2022-12-18T17:35:08.338Z,-4.2
2022-12-18T17:49:42.941Z,-4
2022-12-18T18:04:17.725Z,-4
2022-12-18T18:18:48.950Z,-3.8
2022-12-18T18:33:23.774Z,-3.5
2022-12-18T18:47:58.897Z,-3.5
2022-12-18T19:02:31.536Z,-3.5
2022-12-18T19:17:07.756Z,-3.5
2022-12-18T19:31:38.578Z,-3.5
2022-12-18T19:46:12.361Z,-3.3
2022-12-18T20:00:45.164Z,-3.4
2022-12-18T20:15:18.319Z,-3.2
2022-12-18T20:29:51.991Z,-3.1
2022-12-18T20:44:27.115Z,-3.1
2022-12-18T20:59:01.142Z,-3
2022-12-18T21:13:34.677Z,-2.9
2022-12-18T21:28:08.601Z,-2.5
2022-12-18T21:42:43.154Z,-2.2
2022-12-18T21:57:16.230Z,-2.3
2022-12-18T22:11:48.949Z,-1.9
2022-12-18T22:26:22.482Z,-1.5
2022-12-18T22:40:56.299Z,-0.8
2022-12-18T22:55:29.928Z,-0.7
2022-12-18T23:10:03.409Z,-0.4
2022-12-18T23:24:37.119Z,-0.4
2022-12-18T23:39:30.335Z,-0.4
2022-12-18T23:53:56.112Z,-0.2
